Terminal Aerodrome Forecast
Issued by NWS Cleveland, OH

Home | Current Version | Previous Version | Graphics & Text | Print | Product List | Glossary Off
Versions: 1 2 3 4 5 6 7 8 9 10 11 12 13 14 15 16 17 18

000
FTUS41 KCLE 041800 AAA
TAFERI
TAF AMD
KERI 041825Z 0418/0518 27015G25KT P6SM SCT080
     FM042100 23015G25KT P6SM SCT060 BKN120
      TEMPO 0421/0424 6SM -SHRA BR OVC060
     FM050000 25005KT P6SM SCT050 BKN100
     FM050600 35005KT P6SM BKN050
     FM051200 02005KT P6SM BKN045 BKN120
     FM051500 03005KT P6SM SCT045 BKN120=

USA.gov is the U.S. government's official web portal to all federal, state and local government web resources and services.